sensor_id;sensor_type;location;lat;lon;timestamp;P1;durP1;ratioP1;P2;durP2;ratioP2
68993;SDS011;56054;50.968;5.816;2023-06-14T00:03:08;6.38;;;4.75;;
68993;SDS011;56054;50.968;5.816;2023-06-14T00:06:22;9.02;;;4.43;;
68993;SDS011;56054;50.968;5.816;2023-06-14T00:09:30;10.02;;;4.53;;
68993;SDS011;56054;50.968;5.816;2023-06-14T00:12:40;7.20;;;5.10;;
68993;SDS011;56054;50.968;5.816;2023-06-14T00:15:48;7.55;;;4.07;;
68993;SDS011;56054;50.968;5.816;2023-06-14T00:18:55;6.57;;;4.28;;
68993;SDS011;56054;50.968;5.816;2023-06-14T00:22:05;6.03;;;4.28;;
68993;SDS011;56054;50.968;5.816;2023-06-14T00:25:13;6.13;;;4.35;;
68993;SDS011;56054;50.968;5.816;2023-06-14T00:28:19;6.57;;;4.38;;
68993;SDS011;56054;50.968;5.816;2023-06-14T00:31:27;6.18;;;4.45;;
68993;SDS011;56054;50.968;5.816;2023-06-14T00:34:34;7.20;;;4.32;;
68993;SDS011;56054;50.968;5.816;2023-06-14T00:37:42;10.02;;;4.63;;
68993;SDS011;56054;50.968;5.816;2023-06-14T00:40:49;7.97;;;4.72;;
68993;SDS011;56054;50.968;5.816;2023-06-14T00:43:56;8.02;;;4.15;;
68993;SDS011;56054;50.968;5.816;2023-06-14T00:47:03;7.00;;;4.63;;
68993;SDS011;56054;50.968;5.816;2023-06-14T00:50:10;8.73;;;5.05;;
68993;SDS011;56054;50.968;5.816;2023-06-14T00:53:17;11.02;;;4.82;;
68993;SDS011;56054;50.968;5.816;2023-06-14T00:56:25;8.07;;;4.28;;
68993;SDS011;56054;50.968;5.816;2023-06-14T00:59:33;7.88;;;4.40;;
68993;SDS011;56054;50.968;5.816;2023-06-14T01:02:45;6.18;;;4.72;;
68993;SDS011;56054;50.968;5.816;2023-06-14T01:05:53;6.25;;;4.50;;
68993;SDS011;56054;50.968;5.816;2023-06-14T01:09:15;5.88;;;4.15;;
68993;SDS011;56054;50.968;5.816;2023-06-14T01:15:54;11.57;;;5.15;;
68993;SDS011;56054;50.968;5.816;2023-06-14T01:19:04;5.97;;;4.40;;
68993;SDS011;56054;50.968;5.816;2023-06-14T01:22:14;7.85;;;4.90;;
68993;SDS011;56054;50.968;5.816;2023-06-14T01:25:22;9.63;;;5.28;;
68993;SDS011;56054;50.968;5.816;2023-06-14T01:32:32;6.70;;;4.57;;
68993;SDS011;56054;50.968;5.816;2023-06-14T01:36:01;6.60;;;4.63;;
68993;SDS011;56054;50.968;5.816;2023-06-14T01:43:59;10.02;;;5.32;;
68993;SDS011;56054;50.968;5.816;2023-06-14T01:47:08;6.80;;;4.65;;
68993;SDS011;56054;50.968;5.816;2023-06-14T01:50:16;8.07;;;5.43;;
68993;SDS011;56054;50.968;5.816;2023-06-14T01:53:23;10.68;;;5.60;;
68993;SDS011;56054;50.968;5.816;2023-06-14T01:56:30;9.02;;;5.95;;
68993;SDS011;56054;50.968;5.816;2023-06-14T01:59:37;8.40;;;5.80;;
68993;SDS011;56054;50.968;5.816;2023-06-14T02:02:44;11.60;;;5.65;;
68993;SDS011;56054;50.968;5.816;2023-06-14T02:05:51;8.32;;;5.22;;
68993;SDS011;56054;50.968;5.816;2023-06-14T02:08:58;6.32;;;4.90;;
68993;SDS011;56054;50.968;5.816;2023-06-14T02:12:05;9.55;;;5.40;;
68993;SDS011;56054;50.968;5.816;2023-06-14T02:15:16;11.75;;;5.55;;
68993;SDS011;56054;50.968;5.816;2023-06-14T02:18:23;6.88;;;5.13;;
68993;SDS011;56054;50.968;5.816;2023-06-14T02:21:30;9.98;;;5.60;;
68993;SDS011;56054;50.968;5.816;2023-06-14T02:24:37;12.43;;;5.60;;
68993;SDS011;56054;50.968;5.816;2023-06-14T02:27:44;6.90;;;4.88;;
68993;SDS011;56054;50.968;5.816;2023-06-14T02:30:51;11.95;;;5.18;;
68993;SDS011;56054;50.968;5.816;2023-06-14T02:33:58;6.93;;;4.43;;
68993;SDS011;56054;50.968;5.816;2023-06-14T02:37:05;9.43;;;5.13;;
68993;SDS011;56054;50.968;5.816;2023-06-14T02:40:12;7.22;;;5.22;;
68993;SDS011;56054;50.968;5.816;2023-06-14T02:43:19;9.15;;;5.18;;
68993;SDS011;56054;50.968;5.816;2023-06-14T02:46:26;8.00;;;5.13;;
68993;SDS011;56054;50.968;5.816;2023-06-14T02:49:33;12.02;;;5.38;;
68993;SDS011;56054;50.968;5.816;2023-06-14T02:52:40;8.75;;;5.28;;
68993;SDS011;56054;50.968;5.816;2023-06-14T02:55:47;8.23;;;5.63;;
68993;SDS011;56054;50.968;5.816;2023-06-14T02:58:54;7.55;;;5.60;;
68993;SDS011;56054;50.968;5.816;2023-06-14T03:02:01;13.48;;;5.68;;
68993;SDS011;56054;50.968;5.816;2023-06-14T03:05:09;12.13;;;5.93;;
68993;SDS011;56054;50.968;5.816;2023-06-14T03:08:16;9.00;;;5.13;;
68993;SDS011;56054;50.968;5.816;2023-06-14T03:11:26;7.72;;;5.50;;
68993;SDS011;56054;50.968;5.816;2023-06-14T03:14:35;10.23;;;5.43;;
68993;SDS011;56054;50.968;5.816;2023-06-14T03:17:43;9.20;;;5.40;;
68993;SDS011;56054;50.968;5.816;2023-06-14T03:20:50;10.63;;;5.90;;
68993;SDS011;56054;50.968;5.816;2023-06-14T03:23:58;13.18;;;5.28;;
68993;SDS011;56054;50.968;5.816;2023-06-14T03:27:07;8.30;;;5.63;;
68993;SDS011;56054;50.968;5.816;2023-06-14T03:30:18;7.90;;;5.93;;
68993;SDS011;56054;50.968;5.816;2023-06-14T03:33:27;11.25;;;5.93;;
68993;SDS011;56054;50.968;5.816;2023-06-14T03:36:34;9.65;;;6.50;;
68993;SDS011;56054;50.968;5.816;2023-06-14T03:39:41;10.35;;;6.22;;
68993;SDS011;56054;50.968;5.816;2023-06-14T03:42:55;7.93;;;5.65;;
68993;SDS011;56054;50.968;5.816;2023-06-14T03:46:02;8.32;;;5.82;;
68993;SDS011;56054;50.968;5.816;2023-06-14T03:49:09;8.82;;;6.18;;
68993;SDS011;56054;50.968;5.816;2023-06-14T03:52:18;20.48;;;7.90;;
68993;SDS011;56054;50.968;5.816;2023-06-14T03:55:25;9.07;;;6.32;;
68993;SDS011;56054;50.968;5.816;2023-06-14T03:58:33;12.52;;;6.40;;
68993;SDS011;56054;50.968;5.816;2023-06-14T04:01:40;11.65;;;6.43;;
68993;SDS011;56054;50.968;5.816;2023-06-14T04:04:49;9.95;;;6.07;;
68993;SDS011;56054;50.968;5.816;2023-06-14T04:07:56;13.05;;;6.32;;
68993;SDS011;56054;50.968;5.816;2023-06-14T04:11:05;9.40;;;5.82;;
68993;SDS011;56054;50.968;5.816;2023-06-14T04:14:12;12.52;;;6.28;;
68993;SDS011;56054;50.968;5.816;2023-06-14T04:17:19;12.63;;;6.45;;
68993;SDS011;56054;50.968;5.816;2023-06-14T04:20:26;12.25;;;6.20;;
68993;SDS011;56054;50.968;5.816;2023-06-14T04:23:34;14.77;;;6.93;;
68993;SDS011;56054;50.968;5.816;2023-06-14T04:26:41;10.07;;;6.35;;
68993;SDS011;56054;50.968;5.816;2023-06-14T04:29:52;8.23;;;5.93;;
68993;SDS011;56054;50.968;5.816;2023-06-14T04:33:07;12.38;;;6.70;;
68993;SDS011;56054;50.968;5.816;2023-06-14T04:36:15;9.65;;;6.90;;
68993;SDS011;56054;50.968;5.816;2023-06-14T04:39:23;11.60;;;6.53;;
68993;SDS011;56054;50.968;5.816;2023-06-14T04:42:30;8.60;;;6.07;;
68993;SDS011;56054;50.968;5.816;2023-06-14T04:45:40;14.00;;;6.13;;
68993;SDS011;56054;50.968;5.816;2023-06-14T04:48:47;9.80;;;6.18;;
68993;SDS011;56054;50.968;5.816;2023-06-14T04:51:58;11.85;;;6.75;;
68993;SDS011;56054;50.968;5.816;2023-06-14T04:55:10;11.32;;;6.82;;
68993;SDS011;56054;50.968;5.816;2023-06-14T04:58:25;8.95;;;6.15;;
68993;SDS011;56054;50.968;5.816;2023-06-14T05:01:33;8.60;;;6.63;;
68993;SDS011;56054;50.968;5.816;2023-06-14T05:04:41;12.65;;;6.55;;
68993;SDS011;56054;50.968;5.816;2023-06-14T05:07:48;10.98;;;6.30;;
68993;SDS011;56054;50.968;5.816;2023-06-14T05:10:55;9.85;;;6.03;;
68993;SDS011;56054;50.968;5.816;2023-06-14T05:14:03;7.47;;;5.65;;
68993;SDS011;56054;50.968;5.816;2023-06-14T05:17:10;12.93;;;6.63;;
68993;SDS011;56054;50.968;5.816;2023-06-14T05:20:17;11.15;;;6.53;;
68993;SDS011;56054;50.968;5.816;2023-06-14T05:23:24;9.13;;;6.60;;
68993;SDS011;56054;50.968;5.816;2023-06-14T05:26:31;10.77;;;6.28;;
68993;SDS011;56054;50.968;5.816;2023-06-14T05:29:38;16.15;;;6.68;;
68993;SDS011;56054;50.968;5.816;2023-06-14T05:32:45;10.63;;;6.07;;
68993;SDS011;56054;50.968;5.816;2023-06-14T05:35:52;11.82;;;5.88;;
68993;SDS011;56054;50.968;5.816;2023-06-14T05:38:59;9.65;;;5.82;;
68993;SDS011;56054;50.968;5.816;2023-06-14T05:42:06;13.07;;;6.07;;
68993;SDS011;56054;50.968;5.816;2023-06-14T05:45:13;14.60;;;6.07;;
68993;SDS011;56054;50.968;5.816;2023-06-14T05:48:20;8.95;;;6.00;;
68993;SDS011;56054;50.968;5.816;2023-06-14T05:51:27;11.77;;;6.60;;
68993;SDS011;56054;50.968;5.816;2023-06-14T05:54:34;9.10;;;5.85;;
68993;SDS011;56054;50.968;5.816;2023-06-14T05:57:41;14.20;;;5.88;;
68993;SDS011;56054;50.968;5.816;2023-06-14T06:00:48;9.98;;;5.88;;
68993;SDS011;56054;50.968;5.816;2023-06-14T06:03:55;13.38;;;6.57;;
68993;SDS011;56054;50.968;5.816;2023-06-14T06:07:02;13.18;;;6.32;;
68993;SDS011;56054;50.968;5.816;2023-06-14T06:10:09;12.55;;;6.55;;
68993;SDS011;56054;50.968;5.816;2023-06-14T06:13:16;8.23;;;5.35;;
68993;SDS011;56054;50.968;5.816;2023-06-14T06:16:23;10.50;;;6.00;;
68993;SDS011;56054;50.968;5.816;2023-06-14T06:19:30;10.77;;;6.15;;
68993;SDS011;56054;50.968;5.816;2023-06-14T06:22:37;13.52;;;5.68;;
68993;SDS011;56054;50.968;5.816;2023-06-14T06:25:45;8.57;;;5.65;;
68993;SDS011;56054;50.968;5.816;2023-06-14T06:28:52;12.20;;;5.55;;
68993;SDS011;56054;50.968;5.816;2023-06-14T06:32:02;11.27;;;5.55;;
68993;SDS011;56054;50.968;5.816;2023-06-14T06:35:09;9.50;;;5.43;;
68993;SDS011;56054;50.968;5.816;2023-06-14T06:38:16;13.95;;;5.97;;
68993;SDS011;56054;50.968;5.816;2023-06-14T06:41:41;9.50;;;5.35;;
68993;SDS011;56054;50.968;5.816;2023-06-14T06:44:51;7.65;;;5.18;;
68993;SDS011;56054;50.968;5.816;2023-06-14T06:47:58;7.70;;;4.82;;
68993;SDS011;56054;50.968;5.816;2023-06-14T06:51:07;13.18;;;5.30;;
68993;SDS011;56054;50.968;5.816;2023-06-14T06:54:14;10.45;;;5.13;;
68993;SDS011;56054;50.968;5.816;2023-06-14T06:57:30;14.23;;;4.50;;
68993;SDS011;56054;50.968;5.816;2023-06-14T07:00:37;9.68;;;3.97;;
68993;SDS011;56054;50.968;5.816;2023-06-14T07:03:44;10.70;;;4.25;;
68993;SDS011;56054;50.968;5.816;2023-06-14T07:06:51;10.10;;;4.97;;
68993;SDS011;56054;50.968;5.816;2023-06-14T07:09:58;10.70;;;3.92;;
68993;SDS011;56054;50.968;5.816;2023-06-14T07:13:05;10.77;;;3.85;;
68993;SDS011;56054;50.968;5.816;2023-06-14T07:16:12;12.77;;;3.65;;
68993;SDS011;56054;50.968;5.816;2023-06-14T07:19:19;14.63;;;4.10;;
68993;SDS011;56054;50.968;5.816;2023-06-14T07:22:26;14.25;;;3.90;;
68993;SDS011;56054;50.968;5.816;2023-06-14T07:25:33;13.65;;;4.15;;
68993;SDS011;56054;50.968;5.816;2023-06-14T07:28:43;15.70;;;4.03;;
68993;SDS011;56054;50.968;5.816;2023-06-14T07:31:55;14.88;;;3.95;;
68993;SDS011;56054;50.968;5.816;2023-06-14T07:35:06;11.52;;;4.10;;
68993;SDS011;56054;50.968;5.816;2023-06-14T07:38:13;10.48;;;4.03;;
68993;SDS011;56054;50.968;5.816;2023-06-14T07:41:20;8.20;;;3.95;;
68993;SDS011;56054;50.968;5.816;2023-06-14T07:44:29;8.15;;;3.72;;
68993;SDS011;56054;50.968;5.816;2023-06-14T07:47:37;9.90;;;3.63;;
68993;SDS011;56054;50.968;5.816;2023-06-14T07:50:44;6.72;;;3.72;;
68993;SDS011;56054;50.968;5.816;2023-06-14T07:53:54;5.22;;;3.70;;
68993;SDS011;56054;50.968;5.816;2023-06-14T07:57:06;5.32;;;3.45;;
68993;SDS011;56054;50.968;5.816;2023-06-14T08:00:17;10.20;;;3.83;;
68993;SDS011;56054;50.968;5.816;2023-06-14T08:03:27;5.03;;;3.28;;
68993;SDS011;56054;50.968;5.816;2023-06-14T08:06:34;11.40;;;3.75;;
68993;SDS011;56054;50.968;5.816;2023-06-14T08:09:50;12.65;;;3.50;;
68993;SDS011;56054;50.968;5.816;2023-06-14T08:13:00;7.90;;;3.38;;
68993;SDS011;56054;50.968;5.816;2023-06-14T08:16:12;7.55;;;3.85;;
68993;SDS011;56054;50.968;5.816;2023-06-14T08:19:20;14.13;;;3.05;;
68993;SDS011;56054;50.968;5.816;2023-06-14T08:22:30;6.68;;;3.30;;
68993;SDS011;56054;50.968;5.816;2023-06-14T08:25:39;9.77;;;3.40;;
68993;SDS011;56054;50.968;5.816;2023-06-14T08:28:50;6.93;;;3.55;;
68993;SDS011;56054;50.968;5.816;2023-06-14T08:31:57;9.20;;;3.60;;
68993;SDS011;56054;50.968;5.816;2023-06-14T08:35:08;7.30;;;2.95;;
68993;SDS011;56054;50.968;5.816;2023-06-14T08:38:15;8.63;;;3.10;;
68993;SDS011;56054;50.968;5.816;2023-06-14T08:41:26;4.85;;;3.10;;
68993;SDS011;56054;50.968;5.816;2023-06-14T08:44:49;7.57;;;2.97;;
68993;SDS011;56054;50.968;5.816;2023-06-14T08:47:59;5.88;;;2.90;;
68993;SDS011;56054;50.968;5.816;2023-06-14T08:51:06;9.13;;;3.05;;
68993;SDS011;56054;50.968;5.816;2023-06-14T08:54:17;7.43;;;3.15;;
68993;SDS011;56054;50.968;5.816;2023-06-14T08:57:24;6.97;;;2.58;;
68993;SDS011;56054;50.968;5.816;2023-06-14T09:00:32;7.78;;;4.18;;
68993;SDS011;56054;50.968;5.816;2023-06-14T09:03:39;7.13;;;2.65;;
68993;SDS011;56054;50.968;5.816;2023-06-14T09:06:46;6.65;;;2.90;;
68993;SDS011;56054;50.968;5.816;2023-06-14T09:10:09;10.30;;;2.60;;
68993;SDS011;56054;50.968;5.816;2023-06-14T09:13:18;6.22;;;2.42;;
68993;SDS011;56054;50.968;5.816;2023-06-14T09:16:25;4.00;;;2.63;;
68993;SDS011;56054;50.968;5.816;2023-06-14T09:19:32;7.35;;;2.17;;
68993;SDS011;56054;50.968;5.816;2023-06-14T09:22:40;4.72;;;2.50;;
68993;SDS011;56054;50.968;5.816;2023-06-14T09:25:47;8.20;;;2.30;;
68993;SDS011;56054;50.968;5.816;2023-06-14T09:28:54;7.57;;;2.28;;
68993;SDS011;56054;50.968;5.816;2023-06-14T09:32:01;6.53;;;2.20;;
68993;SDS011;56054;50.968;5.816;2023-06-14T09:35:08;11.63;;;2.85;;
68993;SDS011;56054;50.968;5.816;2023-06-14T09:38:15;10.10;;;2.58;;
68993;SDS011;56054;50.968;5.816;2023-06-14T09:41:31;9.38;;;2.80;;
68993;SDS011;56054;50.968;5.816;2023-06-14T09:44:49;5.47;;;1.83;;
68993;SDS011;56054;50.968;5.816;2023-06-14T09:47:56;15.45;;;2.35;;
68993;SDS011;56054;50.968;5.816;2023-06-14T09:51:04;5.63;;;2.63;;
68993;SDS011;56054;50.968;5.816;2023-06-14T09:54:14;11.82;;;2.85;;
68993;SDS011;56054;50.968;5.816;2023-06-14T09:57:22;10.70;;;2.08;;
68993;SDS011;56054;50.968;5.816;2023-06-14T10:00:33;9.60;;;2.88;;
68993;SDS011;56054;50.968;5.816;2023-06-14T10:03:41;4.45;;;2.08;;
68993;SDS011;56054;50.968;5.816;2023-06-14T10:06:50;6.63;;;2.00;;
68993;SDS011;56054;50.968;5.816;2023-06-14T10:10:00;5.68;;;2.28;;
68993;SDS011;56054;50.968;5.816;2023-06-14T10:13:13;6.78;;;2.05;;
68993;SDS011;56054;50.968;5.816;2023-06-14T10:19:56;7.78;;;2.08;;
68993;SDS011;56054;50.968;5.816;2023-06-14T10:23:53;6.40;;;2.15;;
68993;SDS011;56054;50.968;5.816;2023-06-14T10:27:26;4.30;;;1.90;;
68993;SDS011;56054;50.968;5.816;2023-06-14T10:34:27;5.05;;;1.42;;
68993;SDS011;56054;50.968;5.816;2023-06-14T10:37:40;4.03;;;1.35;;
68993;SDS011;56054;50.968;5.816;2023-06-14T10:40:52;3.40;;;1.40;;
68993;SDS011;56054;50.968;5.816;2023-06-14T10:50:33;1.98;;;1.17;;
68993;SDS011;56054;50.968;5.816;2023-06-14T10:53:43;2.70;;;1.23;;
68993;SDS011;56054;50.968;5.816;2023-06-14T10:56:51;4.72;;;1.58;;
68993;SDS011;56054;50.968;5.816;2023-06-14T11:00:03;3.42;;;1.92;;
68993;SDS011;56054;50.968;5.816;2023-06-14T11:09:59;1.90;;;1.38;;
68993;SDS011;56054;50.968;5.816;2023-06-14T11:13:31;3.03;;;1.63;;
68993;SDS011;56054;50.968;5.816;2023-06-14T11:16:38;2.60;;;1.80;;
68993;SDS011;56054;50.968;5.816;2023-06-14T11:19:45;2.72;;;1.38;;
68993;SDS011;56054;50.968;5.816;2023-06-14T11:22:52;2.13;;;1.30;;
68993;SDS011;56054;50.968;5.816;2023-06-14T11:26:00;3.63;;;1.63;;
68993;SDS011;56054;50.968;5.816;2023-06-14T11:29:07;6.28;;;1.85;;
68993;SDS011;56054;50.968;5.816;2023-06-14T11:32:14;3.30;;;1.40;;
68993;SDS011;56054;50.968;5.816;2023-06-14T11:35:22;5.50;;;1.77;;
68993;SDS011;56054;50.968;5.816;2023-06-14T11:38:29;3.15;;;1.38;;
68993;SDS011;56054;50.968;5.816;2023-06-14T11:41:37;4.93;;;1.60;;
68993;SDS011;56054;50.968;5.816;2023-06-14T11:44:45;5.68;;;1.52;;
68993;SDS011;56054;50.968;5.816;2023-06-14T11:47:56;9.75;;;1.70;;
68993;SDS011;56054;50.968;5.816;2023-06-14T11:51:04;3.45;;;2.35;;
68993;SDS011;56054;50.968;5.816;2023-06-14T11:54:11;5.90;;;1.50;;
68993;SDS011;56054;50.968;5.816;2023-06-14T11:57:18;3.53;;;1.48;;
68993;SDS011;56054;50.968;5.816;2023-06-14T12:00:25;2.30;;;1.70;;
68993;SDS011;56054;50.968;5.816;2023-06-14T12:03:32;9.82;;;1.75;;
68993;SDS011;56054;50.968;5.816;2023-06-14T12:06:39;5.82;;;1.80;;
68993;SDS011;56054;50.968;5.816;2023-06-14T12:12:59;8.18;;;1.77;;
68993;SDS011;56054;50.968;5.816;2023-06-14T12:16:09;5.07;;;1.38;;
68993;SDS011;56054;50.968;5.816;2023-06-14T12:19:18;4.47;;;1.80;;
68993;SDS011;56054;50.968;5.816;2023-06-14T12:22:25;5.45;;;1.67;;
68993;SDS011;56054;50.968;5.816;2023-06-14T12:25:35;5.03;;;1.70;;
68993;SDS011;56054;50.968;5.816;2023-06-14T12:28:46;7.53;;;1.73;;
68993;SDS011;56054;50.968;5.816;2023-06-14T12:31:54;5.72;;;1.70;;
68993;SDS011;56054;50.968;5.816;2023-06-14T12:35:01;5.60;;;2.30;;
68993;SDS011;56054;50.968;5.816;2023-06-14T12:38:08;8.20;;;2.58;;
68993;SDS011;56054;50.968;5.816;2023-06-14T12:41:15;10.27;;;2.00;;
68993;SDS011;56054;50.968;5.816;2023-06-14T12:44:22;3.17;;;1.70;;
68993;SDS011;56054;50.968;5.816;2023-06-14T12:47:32;6.20;;;1.70;;
68993;SDS011;56054;50.968;5.816;2023-06-14T12:50:39;7.03;;;1.65;;
68993;SDS011;56054;50.968;5.816;2023-06-14T12:53:46;6.30;;;1.73;;
68993;SDS011;56054;50.968;5.816;2023-06-14T12:56:54;7.43;;;1.75;;
68993;SDS011;56054;50.968;5.816;2023-06-14T13:00:01;5.70;;;1.60;;
68993;SDS011;56054;50.968;5.816;2023-06-14T13:03:09;8.32;;;1.83;;
68993;SDS011;56054;50.968;5.816;2023-06-14T13:06:17;9.43;;;1.60;;
68993;SDS011;56054;50.968;5.816;2023-06-14T13:09:24;2.95;;;1.73;;
68993;SDS011;56054;50.968;5.816;2023-06-14T13:12:31;3.28;;;1.70;;
68993;SDS011;56054;50.968;5.816;2023-06-14T13:15:38;5.78;;;1.83;;
68993;SDS011;56054;50.968;5.816;2023-06-14T13:18:45;7.80;;;1.33;;
68993;SDS011;56054;50.968;5.816;2023-06-14T13:21:52;4.65;;;1.60;;
68993;SDS011;56054;50.968;5.816;2023-06-14T13:24:59;2.25;;;1.25;;
68993;SDS011;56054;50.968;5.816;2023-06-14T13:28:06;2.53;;;1.42;;
68993;SDS011;56054;50.968;5.816;2023-06-14T13:31:13;4.50;;;1.50;;
68993;SDS011;56054;50.968;5.816;2023-06-14T13:34:20;2.13;;;1.00;;
68993;SDS011;56054;50.968;5.816;2023-06-14T13:37:27;5.38;;;1.27;;
68993;SDS011;56054;50.968;5.816;2023-06-14T13:40:35;4.70;;;1.48;;
68993;SDS011;56054;50.968;5.816;2023-06-14T13:43:42;3.33;;;0.93;;
68993;SDS011;56054;50.968;5.816;2023-06-14T13:46:49;6.25;;;1.95;;
68993;SDS011;56054;50.968;5.816;2023-06-14T13:49:56;2.28;;;1.17;;
68993;SDS011;56054;50.968;5.816;2023-06-14T13:53:03;6.75;;;1.35;;
68993;SDS011;56054;50.968;5.816;2023-06-14T13:56:10;1.33;;;1.13;;
68993;SDS011;56054;50.968;5.816;2023-06-14T13:59:17;5.82;;;1.30;;
68993;SDS011;56054;50.968;5.816;2023-06-14T14:02:27;3.17;;;1.58;;
68993;SDS011;56054;50.968;5.816;2023-06-14T14:05:34;5.10;;;1.20;;
68993;SDS011;56054;50.968;5.816;2023-06-14T14:08:41;5.45;;;1.45;;
68993;SDS011;56054;50.968;5.816;2023-06-14T14:11:48;3.00;;;1.40;;
68993;SDS011;56054;50.968;5.816;2023-06-14T14:14:55;1.70;;;1.23;;
68993;SDS011;56054;50.968;5.816;2023-06-14T14:18:23;3.28;;;1.63;;
68993;SDS011;56054;50.968;5.816;2023-06-14T14:21:33;1.90;;;1.30;;
68993;SDS011;56054;50.968;5.816;2023-06-14T14:24:43;4.53;;;1.50;;
68993;SDS011;56054;50.968;5.816;2023-06-14T14:27:51;5.95;;;1.40;;
68993;SDS011;56054;50.968;5.816;2023-06-14T14:30:58;3.33;;;1.73;;
68993;SDS011;56054;50.968;5.816;2023-06-14T14:34:05;5.47;;;1.80;;
68993;SDS011;56054;50.968;5.816;2023-06-14T14:37:12;3.92;;;1.50;;
68993;SDS011;56054;50.968;5.816;2023-06-14T14:40:19;6.65;;;1.80;;
68993;SDS011;56054;50.968;5.816;2023-06-14T14:43:26;5.63;;;1.70;;
68993;SDS011;56054;50.968;5.816;2023-06-14T14:46:33;4.32;;;1.60;;
68993;SDS011;56054;50.968;5.816;2023-06-14T14:49:40;8.05;;;1.60;;
68993;SDS011;56054;50.968;5.816;2023-06-14T14:52:47;1.85;;;1.48;;
68993;SDS011;56054;50.968;5.816;2023-06-14T14:55:54;5.90;;;1.60;;
68993;SDS011;56054;50.968;5.816;2023-06-14T14:59:01;4.22;;;2.10;;
68993;SDS011;56054;50.968;5.816;2023-06-14T15:02:08;6.63;;;1.77;;
68993;SDS011;56054;50.968;5.816;2023-06-14T15:05:15;5.50;;;2.00;;
68993;SDS011;56054;50.968;5.816;2023-06-14T15:08:22;2.22;;;1.40;;
68993;SDS011;56054;50.968;5.816;2023-06-14T15:11:29;4.25;;;1.63;;
68993;SDS011;56054;50.968;5.816;2023-06-14T15:14:36;7.00;;;1.60;;
68993;SDS011;56054;50.968;5.816;2023-06-14T15:17:43;7.55;;;1.60;;
68993;SDS011;56054;50.968;5.816;2023-06-14T15:20:50;5.57;;;1.65;;
68993;SDS011;56054;50.968;5.816;2023-06-14T15:23:57;3.10;;;1.48;;
68993;SDS011;56054;50.968;5.816;2023-06-14T15:27:04;2.53;;;1.33;;
68993;SDS011;56054;50.968;5.816;2023-06-14T15:30:11;3.47;;;1.48;;
68993;SDS011;56054;50.968;5.816;2023-06-14T15:33:19;4.15;;;1.35;;
68993;SDS011;56054;50.968;5.816;2023-06-14T15:36:26;3.85;;;1.60;;
68993;SDS011;56054;50.968;5.816;2023-06-14T15:39:33;5.05;;;1.40;;
68993;SDS011;56054;50.968;5.816;2023-06-14T15:42:40;9.23;;;2.33;;
68993;SDS011;56054;50.968;5.816;2023-06-14T15:45:47;5.72;;;1.40;;
68993;SDS011;56054;50.968;5.816;2023-06-14T15:48:54;4.13;;;1.65;;
68993;SDS011;56054;50.968;5.816;2023-06-14T15:52:01;2.90;;;1.25;;
68993;SDS011;56054;50.968;5.816;2023-06-14T15:55:08;3.20;;;1.70;;
68993;SDS011;56054;50.968;5.816;2023-06-14T15:58:15;2.85;;;1.42;;
68993;SDS011;56054;50.968;5.816;2023-06-14T16:01:22;4.80;;;1.60;;
68993;SDS011;56054;50.968;5.816;2023-06-14T16:04:29;6.97;;;1.50;;
68993;SDS011;56054;50.968;5.816;2023-06-14T16:07:36;2.53;;;1.50;;
68993;SDS011;56054;50.968;5.816;2023-06-14T16:10:43;4.60;;;1.15;;
68993;SDS011;56054;50.968;5.816;2023-06-14T16:13:50;7.63;;;1.50;;
68993;SDS011;56054;50.968;5.816;2023-06-14T16:16:57;7.75;;;1.50;;
68993;SDS011;56054;50.968;5.816;2023-06-14T16:20:04;3.67;;;1.75;;
68993;SDS011;56054;50.968;5.816;2023-06-14T16:23:12;3.65;;;1.30;;
68993;SDS011;56054;50.968;5.816;2023-06-14T16:26:19;3.25;;;1.00;;
68993;SDS011;56054;50.968;5.816;2023-06-14T16:29:26;3.60;;;1.13;;
68993;SDS011;56054;50.968;5.816;2023-06-14T16:32:33;2.35;;;1.30;;
68993;SDS011;56054;50.968;5.816;2023-06-14T16:35:42;3.17;;;1.08;;
68993;SDS011;56054;50.968;5.816;2023-06-14T16:38:49;5.05;;;1.30;;
68993;SDS011;56054;50.968;5.816;2023-06-14T16:41:57;4.55;;;1.27;;
68993;SDS011;56054;50.968;5.816;2023-06-14T16:45:04;2.20;;;1.23;;
68993;SDS011;56054;50.968;5.816;2023-06-14T16:48:12;2.72;;;1.17;;
68993;SDS011;56054;50.968;5.816;2023-06-14T16:51:26;7.38;;;1.40;;
68993;SDS011;56054;50.968;5.816;2023-06-14T16:54:33;2.25;;;1.25;;
68993;SDS011;56054;50.968;5.816;2023-06-14T16:57:40;5.65;;;1.55;;
68993;SDS011;56054;50.968;5.816;2023-06-14T17:00:47;9.55;;;1.58;;
68993;SDS011;56054;50.968;5.816;2023-06-14T17:03:54;6.88;;;1.58;;
68993;SDS011;56054;50.968;5.816;2023-06-14T17:07:01;3.47;;;1.65;;
68993;SDS011;56054;50.968;5.816;2023-06-14T17:10:08;3.22;;;1.85;;
68993;SDS011;56054;50.968;5.816;2023-06-14T17:13:15;4.25;;;1.60;;
68993;SDS011;56054;50.968;5.816;2023-06-14T17:16:22;7.43;;;1.40;;
68993;SDS011;56054;50.968;5.816;2023-06-14T17:19:29;2.70;;;1.40;;
68993;SDS011;56054;50.968;5.816;2023-06-14T17:22:36;2.88;;;1.40;;
68993;SDS011;56054;50.968;5.816;2023-06-14T17:25:44;5.28;;;1.80;;
68993;SDS011;56054;50.968;5.816;2023-06-14T17:28:51;6.47;;;1.55;;
68993;SDS011;56054;50.968;5.816;2023-06-14T17:31:58;3.58;;;1.50;;
68993;SDS011;56054;50.968;5.816;2023-06-14T17:35:05;3.55;;;1.60;;
68993;SDS011;56054;50.968;5.816;2023-06-14T17:38:12;10.50;;;2.60;;
68993;SDS011;56054;50.968;5.816;2023-06-14T17:41:19;2.08;;;1.45;;
68993;SDS011;56054;50.968;5.816;2023-06-14T17:44:26;8.23;;;1.55;;
68993;SDS011;56054;50.968;5.816;2023-06-14T17:47:33;7.28;;;1.83;;
68993;SDS011;56054;50.968;5.816;2023-06-14T17:50:40;5.03;;;1.50;;
68993;SDS011;56054;50.968;5.816;2023-06-14T17:53:47;4.55;;;1.70;;
68993;SDS011;56054;50.968;5.816;2023-06-14T17:56:54;5.70;;;1.40;;
68993;SDS011;56054;50.968;5.816;2023-06-14T18:00:01;2.67;;;1.42;;
68993;SDS011;56054;50.968;5.816;2023-06-14T18:03:12;5.05;;;1.50;;
68993;SDS011;56054;50.968;5.816;2023-06-14T18:06:19;1.98;;;1.50;;
68993;SDS011;56054;50.968;5.816;2023-06-14T18:09:26;2.08;;;1.63;;
68993;SDS011;56054;50.968;5.816;2023-06-14T18:12:33;2.85;;;1.80;;
68993;SDS011;56054;50.968;5.816;2023-06-14T18:15:40;5.00;;;1.77;;
68993;SDS011;56054;50.968;5.816;2023-06-14T18:18:47;5.72;;;1.98;;
68993;SDS011;56054;50.968;5.816;2023-06-14T18:21:55;3.85;;;1.80;;
68993;SDS011;56054;50.968;5.816;2023-06-14T18:25:02;2.90;;;1.90;;
68993;SDS011;56054;50.968;5.816;2023-06-14T18:28:09;5.85;;;1.67;;
68993;SDS011;56054;50.968;5.816;2023-06-14T18:31:16;8.35;;;1.63;;
68993;SDS011;56054;50.968;5.816;2023-06-14T18:34:23;3.00;;;1.67;;
68993;SDS011;56054;50.968;5.816;2023-06-14T18:37:30;2.47;;;1.55;;
68993;SDS011;56054;50.968;5.816;2023-06-14T18:40:37;7.43;;;1.88;;
68993;SDS011;56054;50.968;5.816;2023-06-14T18:43:45;2.67;;;1.50;;
68993;SDS011;56054;50.968;5.816;2023-06-14T18:46:52;2.03;;;1.55;;
68993;SDS011;56054;50.968;5.816;2023-06-14T18:49:59;3.83;;;1.40;;
68993;SDS011;56054;50.968;5.816;2023-06-14T18:53:06;4.85;;;1.65;;
68993;SDS011;56054;50.968;5.816;2023-06-14T18:56:14;3.05;;;2.00;;
68993;SDS011;56054;50.968;5.816;2023-06-14T18:59:21;6.47;;;1.80;;
68993;SDS011;56054;50.968;5.816;2023-06-14T19:02:28;3.88;;;1.65;;
68993;SDS011;56054;50.968;5.816;2023-06-14T19:05:35;4.03;;;1.60;;
68993;SDS011;56054;50.968;5.816;2023-06-14T19:08:42;3.55;;;2.22;;
68993;SDS011;56054;50.968;5.816;2023-06-14T19:11:49;2.28;;;1.48;;
68993;SDS011;56054;50.968;5.816;2023-06-14T19:14:56;4.88;;;1.48;;
68993;SDS011;56054;50.968;5.816;2023-06-14T19:18:03;4.45;;;2.00;;
68993;SDS011;56054;50.968;5.816;2023-06-14T19:21:10;5.20;;;1.85;;
68993;SDS011;56054;50.968;5.816;2023-06-14T19:24:17;2.13;;;1.70;;
68993;SDS011;56054;50.968;5.816;2023-06-14T19:27:24;2.95;;;1.83;;
68993;SDS011;56054;50.968;5.816;2023-06-14T19:30:31;3.28;;;1.90;;